PWSweather.com
Personal Weather Stations
Station Observations
KVAGLENALL
West Henrico, Glen Allen, VA 23060-6503

West HenricoGlen Allen, VA 23060-6503

Lat: 37.6554, Lon: -77.5693

Elevation: 273

Station Type: Davis Vantage Pro II

www.glenallenweather.com

High Low Average
Temperature 70.8°F21.6°C 52.8°F11.6°C 64.3°F17.9°C
Dew Point 67.0°F19.4°C 52.5°F11.4°C 62.2°F16.8°C
Winds 21.0 mph 33.8 kmh Calm Calm 6.0 mph S9.7 kmh S
Wind Gusts 23.2 mph37.3 kmh -- 10.0 mph16.1 kmh
Humidity 100% 87% 93%
Pressure 30.08 in1018.6 mb 29.90 in1012.5 mb -
Precipitation 0.00 in0.0 mm - -
Hour Temp Dew Point Humidity Winds Wind Gusts Pressure Precip Precip Rate Daily Precip Total
12:00 AM 52.9°F11.6°C 52.6°F11.4°C 99% 2.0 mph WSW3.2 kmh WSW 2.0 mph3.2 kmh 30.07 in1018.3 mb 0.07 in1.8 mm 0.00 in0.0 mm 0.07 in1.8 mm
12:15 AM 53.0°F11.7°C 52.7°F11.5°C 99% Calm Calm 2.0 mph3.2 kmh 30.06 in1017.9 mb 0.08 in2.0 mm 0.04 in1.0 mm 0.08 in2.0 mm
12:30 AM 52.9°F11.6°C 52.6°F11.4°C 99% 2.0 mph S3.2 kmh S 3.0 mph4.8 kmh 30.06 in1017.9 mb 0.02 in0.5 mm 0.00 in0.0 mm 0.08 in2.0 mm
12:45 AM 52.8°F11.6°C 52.5°F11.4°C 99% 2.0 mph W3.2 kmh W 3.0 mph4.8 kmh 30.07 in1018.3 mb 0.02 in0.5 mm 0.00 in0.0 mm 0.08 in2.0 mm
01:00 AM 52.8°F11.6°C 52.5°F11.4°C 99% 2.0 mph WSW3.2 kmh WSW 4.0 mph6.4 kmh 30.08 in1018.6 mb 0.01 in0.3 mm 0.00 in0.0 mm 0.08 in2.0 mm
01:15 AM 52.9°F11.6°C 52.6°F11.4°C 99% Calm Calm -- 30.06 in1017.9 mb 0.01 in0.3 mm 0.00 in0.0 mm 0.08 in2.0 mm
01:30 AM 52.9°F11.6°C 52.6°F11.4°C 99% Calm Calm -- 30.06 in1017.9 mb 0.00 in0.0 mm 0.00 in0.0 mm 0.08 in2.0 mm
01:45 AM 52.9°F11.6°C 52.6°F11.4°C 99% Calm Calm -- 30.05 in1017.6 mb 0.00 in0.0 mm 0.00 in0.0 mm 0.08 in2.0 mm
02:00 AM 52.9°F11.6°C 52.6°F11.4°C 99% 2.0 mph SE3.2 kmh SE 2.0 mph3.2 kmh 30.06 in1017.9 mb 0.00 in0.0 mm 0.00 in0.0 mm 0.08 in2.0 mm
02:15 AM 52.9°F11.6°C 52.6°F11.4°C 99% Calm Calm -- 30.05 in1017.6 mb 0.00 in0.0 mm 0.00 in0.0 mm 0.08 in2.0 mm
02:30 AM 53.0°F11.7°C 52.7°F11.5°C 99% Calm Calm -- 30.05 in1017.6 mb 0.00 in0.0 mm 0.00 in0.0 mm 0.08 in2.0 mm
02:45 AM 53.0°F11.7°C 52.7°F11.5°C 99% Calm Calm -- 30.04 in1017.3 mb 0.01 in0.3 mm 0.04 in1.0 mm 0.09 in2.3 mm
03:00 AM 52.9°F11.6°C 52.6°F11.4°C 99% Calm Calm -- 30.04 in1017.3 mb 0.03 in0.8 mm 0.03 in0.8 mm 0.11 in2.8 mm
03:15 AM 53.0°F11.7°C 52.7°F11.5°C 99% Calm Calm -- 30.03 in1016.9 mb 0.04 in1.0 mm 0.04 in1.0 mm 0.12 in3.0 mm
03:30 AM 53.0°F11.7°C 52.7°F11.5°C 99% Calm Calm 2.0 mph3.2 kmh 30.02 in1016.6 mb 0.05 in1.3 mm 0.04 in1.0 mm 0.13 in3.3 mm
03:45 AM 53.3°F11.8°C 53.0°F11.7°C 99% 3.0 mph ESE4.8 kmh ESE 3.0 mph4.8 kmh 30.00 in1015.9 mb 0.06 in1.5 mm 0.04 in1.0 mm 0.14 in3.6 mm
04:00 AM 53.4°F11.9°C 53.1°F11.7°C 99% 2.0 mph ESE3.2 kmh ESE 2.0 mph3.2 kmh 29.99 in1015.6 mb 0.03 in0.8 mm 0.00 in0.0 mm 0.14 in3.6 mm
04:15 AM 53.7°F12.1°C 53.4°F11.9°C 99% Calm Calm 1.0 mph1.6 kmh 30.00 in1015.9 mb 0.03 in0.8 mm 0.00 in0.0 mm 0.14 in3.6 mm
04:30 AM 54.2°F12.3°C 53.9°F12.2°C 99% 4.0 mph SE6.4 kmh SE 4.0 mph6.4 kmh 30.00 in1015.9 mb 0.01 in0.3 mm 0.00 in0.0 mm 0.14 in3.6 mm
04:45 AM 55.0°F12.8°C 54.7°F12.6°C 99% 2.0 mph ESE3.2 kmh ESE 6.1 mph9.8 kmh 29.99 in1015.6 mb 0.02 in0.5 mm 0.04 in1.0 mm 0.15 in3.8 mm
05:00 AM 56.4°F13.6°C 56.4°F13.6°C 100% 2.0 mph SW3.2 kmh SW 7.1 mph11.4 kmh 29.97 in1014.9 mb 0.02 in0.5 mm 0.00 in0.0 mm 0.15 in3.8 mm
05:15 AM 57.7°F14.3°C 57.7°F14.3°C 100% 1.0 mph SSE1.6 kmh SSE 3.0 mph4.8 kmh 29.98 in1015.2 mb 0.03 in0.8 mm 0.04 in1.0 mm 0.16 in4.1 mm
05:30 AM 59.1°F15.1°C 59.1°F15.1°C 100% 5.0 mph S8.0 kmh S 8.1 mph13.0 kmh 29.99 in1015.6 mb 0.03 in0.8 mm 0.00 in0.0 mm 0.16 in4.1 mm
05:45 AM 59.3°F15.2°C 59.3°F15.2°C 100% 3.0 mph SE4.8 kmh SE 6.1 mph9.8 kmh 29.99 in1015.6 mb 0.05 in1.3 mm 0.08 in2.0 mm 0.18 in4.6 mm
06:00 AM 60.0°F15.6°C 59.7°F15.4°C 99% 3.0 mph S4.8 kmh S 7.1 mph11.4 kmh 29.98 in1015.2 mb 0.07 in1.8 mm 0.03 in0.8 mm 0.20 in5.1 mm
06:15 AM 61.1°F16.2°C 61.1°F16.2°C 100% 3.0 mph SSW4.8 kmh SSW 6.1 mph9.8 kmh 29.98 in1015.2 mb 0.07 in1.8 mm 0.00 in0.0 mm 0.20 in5.1 mm
06:30 AM 62.1°F16.7°C 62.1°F16.7°C 100% 5.0 mph SSW8.0 kmh SSW 7.1 mph11.4 kmh 29.99 in1015.6 mb 0.06 in1.5 mm 0.00 in0.0 mm 0.20 in5.1 mm
06:45 AM 63.2°F17.3°C 63.2°F17.3°C 100% 4.0 mph SE6.4 kmh SE 4.0 mph6.4 kmh 29.98 in1015.2 mb 0.06 in1.5 mm 0.00 in0.0 mm 0.20 in5.1 mm
07:00 AM 62.6°F17.0°C 62.3°F16.8°C 99% 3.0 mph NW4.8 kmh NW 4.0 mph6.4 kmh 30.00 in1015.9 mb 0.00 in0.0 mm 0.00 in0.0 mm 0.20 in5.1 mm
07:15 AM 62.7°F17.1°C 62.4°F16.9°C 99% 4.0 mph S6.4 kmh S 10.1 mph16.3 kmh 29.99 in1015.6 mb 0.00 in0.0 mm 0.00 in0.0 mm 0.20 in5.1 mm
07:30 AM 63.1°F17.3°C 62.8°F17.1°C 99% 4.0 mph SSW6.4 kmh SSW 10.1 mph16.3 kmh 29.99 in1015.6 mb 0.00 in0.0 mm 0.00 in0.0 mm 0.20 in5.1 mm
07:45 AM 63.6°F17.6°C 63.3°F17.4°C 99% 6.0 mph SW9.7 kmh SW 8.1 mph13.0 kmh 29.99 in1015.6 mb 0.00 in0.0 mm 0.00 in0.0 mm 0.20 in5.1 mm
08:00 AM 64.3°F17.9°C 64.0°F17.8°C 99% 6.0 mph SSW9.7 kmh SSW 10.1 mph16.3 kmh 30.00 in1015.9 mb 0.00 in0.0 mm 0.00 in0.0 mm 0.20 in5.1 mm
08:15 AM 64.7°F18.2°C 64.4°F18.0°C 99% 4.0 mph SSW6.4 kmh SSW 9.1 mph14.6 kmh 30.00 in1015.9 mb 0.00 in0.0 mm 0.00 in0.0 mm 0.20 in5.1 mm
08:30 AM 65.3°F18.5°C 64.8°F18.2°C 98% 7.0 mph SW11.3 kmh SW 15.1 mph24.3 kmh 29.99 in1015.6 mb 0.00 in0.0 mm 0.00 in0.0 mm 0.20 in5.1 mm
08:45 AM 66.2°F19.0°C 65.1°F18.4°C 96% 9.0 mph S14.5 kmh S 16.2 mph26.1 kmh 30.00 in1015.9 mb 0.00 in0.0 mm 0.00 in0.0 mm 0.20 in5.1 mm
09:00 AM 66.9°F19.4°C 65.2°F18.4°C 94% 13.0 mph S20.9 kmh S 13.1 mph21.1 kmh 30.00 in1015.9 mb 0.00 in0.0 mm 0.00 in0.0 mm 0.20 in5.1 mm
09:15 AM 67.2°F19.6°C 65.5°F18.6°C 94% 12.0 mph SW19.3 kmh SW 12.1 mph19.5 kmh 29.99 in1015.6 mb 0.00 in0.0 mm 0.00 in0.0 mm 0.20 in5.1 mm
09:30 AM 66.9°F19.4°C 65.5°F18.6°C 95% 7.0 mph S11.3 kmh S 16.2 mph26.1 kmh 30.00 in1015.9 mb 0.02 in0.5 mm 0.08 in2.0 mm 0.22 in5.6 mm
09:45 AM 67.2°F19.6°C 65.5°F18.6°C 94% 7.0 mph SW11.3 kmh SW 16.2 mph26.1 kmh 29.99 in1015.6 mb 0.02 in0.5 mm 0.00 in0.0 mm 0.22 in5.6 mm
10:00 AM 67.8°F19.9°C 65.4°F18.6°C 92% 5.0 mph SW8.0 kmh SW 11.1 mph17.9 kmh 29.99 in1015.6 mb 0.02 in0.5 mm 0.00 in0.0 mm 0.22 in5.6 mm
10:15 AM 68.3°F20.2°C 65.9°F18.8°C 92% 11.0 mph S17.7 kmh S 23.2 mph37.3 kmh 29.99 in1015.6 mb 0.02 in0.5 mm 0.00 in0.0 mm 0.22 in5.6 mm
10:30 AM 68.8°F20.4°C 66.1°F18.9°C 91% 11.0 mph SSW17.7 kmh SSW 12.1 mph19.5 kmh 29.99 in1015.6 mb 0.00 in0.0 mm 0.00 in0.0 mm 0.22 in5.6 mm
10:45 AM 69.0°F20.6°C 66.0°F18.9°C 90% 14.0 mph SSW22.5 kmh SSW 16.2 mph26.1 kmh 29.98 in1015.2 mb 0.00 in0.0 mm 0.00 in0.0 mm 0.22 in5.6 mm
11:00 AM 69.1°F20.6°C 66.1°F18.9°C 90% 5.0 mph SW8.0 kmh SW 11.1 mph17.9 kmh 29.98 in1015.2 mb 0.00 in0.0 mm 0.00 in0.0 mm 0.22 in5.6 mm
11:15 AM 69.1°F20.6°C 66.1°F18.9°C 90% 4.0 mph S6.4 kmh S 10.1 mph16.3 kmh 29.97 in1014.9 mb 0.00 in0.0 mm 0.00 in0.0 mm 0.22 in5.6 mm
11:30 AM 69.6°F20.9°C 66.5°F19.2°C 90% 10.0 mph S16.1 kmh S 17.2 mph27.7 kmh 29.97 in1014.9 mb 0.00 in0.0 mm 0.00 in0.0 mm 0.22 in5.6 mm
11:45 AM 69.9°F21.1°C 66.8°F19.3°C 90% 6.0 mph SSW9.7 kmh SSW 13.1 mph21.1 kmh 29.96 in1014.6 mb 0.00 in0.0 mm 0.00 in0.0 mm 0.22 in5.6 mm
12:00 PM 70.2°F21.2°C 66.8°F19.3°C 89% 21.0 mph SW33.8 kmh SW 21.2 mph34.1 kmh 29.94 in1013.9 mb 0.00 in0.0 mm 0.00 in0.0 mm 0.22 in5.6 mm
12:15 PM 69.0°F20.6°C 66.6°F19.2°C 92% 5.0 mph SSW8.0 kmh SSW 18.2 mph29.3 kmh 29.94 in1013.9 mb 0.04 in1.0 mm 0.16 in4.1 mm 0.26 in6.6 mm
12:45 PM 67.5°F19.7°C 65.4°F18.6°C 93% 6.0 mph SW9.7 kmh SW 20.2 mph32.5 kmh 29.92 in1013.2 mb 0.40 in10.2 mm 0.72 in18.3 mm 0.62 in15.7 mm
01:00 PM 68.5°F20.3°C 66.1°F18.9°C 92% 6.0 mph SW9.7 kmh SW 14.1 mph22.7 kmh 29.90 in1012.5 mb 0.40 in10.2 mm 0.00 in0.0 mm 0.62 in15.7 mm
01:15 PM 68.9°F20.5°C 66.2°F19.0°C 91% 9.0 mph WSW14.5 kmh WSW 20.2 mph32.5 kmh 29.93 in1013.5 mb 0.40 in10.2 mm 0.00 in0.0 mm 0.62 in15.7 mm
01:30 PM 69.1°F20.6°C 66.4°F19.1°C 91% 7.0 mph SW11.3 kmh SW 13.1 mph21.1 kmh 29.92 in1013.2 mb 0.00 in0.0 mm 0.00 in0.0 mm 0.62 in15.7 mm
01:45 PM 69.8°F21.0°C 67.0°F19.4°C 91% 4.0 mph SW6.4 kmh SW 10.1 mph16.3 kmh 29.91 in1012.9 mb 0.00 in0.0 mm 0.00 in0.0 mm 0.62 in15.7 mm
02:00 PM 70.0°F21.1°C 66.9°F19.4°C 90% 8.0 mph SSW12.9 kmh SSW 13.1 mph21.1 kmh 29.91 in1012.9 mb 0.00 in0.0 mm 0.00 in0.0 mm 0.62 in15.7 mm
02:15 PM 70.4°F21.3°C 67.0°F19.4°C 89% 9.0 mph S14.5 kmh S 14.1 mph22.7 kmh 29.91 in1012.9 mb 0.00 in0.0 mm 0.00 in0.0 mm 0.62 in15.7 mm
02:30 PM 70.5°F21.4°C 66.7°F19.3°C 88% 16.0 mph SW25.7 kmh SW 18.2 mph29.3 kmh 29.91 in1012.9 mb 0.00 in0.0 mm 0.00 in0.0 mm 0.62 in15.7 mm
03:00 PM 70.7°F21.5°C 66.9°F19.4°C 88% 10.0 mph SSW16.1 kmh SSW 14.1 mph22.7 kmh 29.91 in1012.9 mb 0.00 in0.0 mm 0.00 in0.0 mm 0.62 in15.7 mm
03:15 PM 70.8°F21.6°C 66.7°F19.3°C 87% 10.0 mph SW16.1 kmh SW 17.2 mph27.7 kmh 29.91 in1012.9 mb 0.00 in0.0 mm 0.00 in0.0 mm 0.62 in15.7 mm
03:30 PM 70.8°F21.6°C 66.7°F19.3°C 87% 6.0 mph SW9.7 kmh SW 13.1 mph21.1 kmh 29.91 in1012.9 mb 0.00 in0.0 mm 0.00 in0.0 mm 0.62 in15.7 mm
03:45 PM 70.8°F21.6°C 66.7°F19.3°C 87% 8.0 mph SW12.9 kmh SW 14.1 mph22.7 kmh 29.91 in1012.9 mb 0.00 in0.0 mm 0.00 in0.0 mm 0.62 in15.7 mm
04:00 PM 70.8°F21.6°C 66.7°F19.3°C 87% 8.0 mph S12.9 kmh S 13.1 mph21.1 kmh 29.91 in1012.9 mb 0.00 in0.0 mm 0.00 in0.0 mm 0.62 in15.7 mm
04:15 PM 70.6°F21.4°C 66.5°F19.2°C 87% 5.0 mph S8.0 kmh S 8.1 mph13.0 kmh 29.91 in1012.9 mb 0.00 in0.0 mm 0.00 in0.0 mm 0.62 in15.7 mm
04:30 PM 70.3°F21.3°C 66.2°F19.0°C 87% 5.0 mph S8.0 kmh S 16.2 mph26.1 kmh 29.91 in1012.9 mb 0.00 in0.0 mm 0.00 in0.0 mm 0.62 in15.7 mm
04:45 PM 70.4°F21.3°C 66.3°F19.1°C 87% 8.0 mph SSW12.9 kmh SSW 14.1 mph22.7 kmh 29.92 in1013.2 mb 0.00 in0.0 mm 0.00 in0.0 mm 0.62 in15.7 mm
05:00 PM 69.9°F21.1°C 66.1°F18.9°C 88% 4.0 mph SW6.4 kmh SW 14.1 mph22.7 kmh 29.91 in1012.9 mb 0.00 in0.0 mm 0.00 in0.0 mm 0.62 in15.7 mm
05:15 PM 69.6°F20.9°C 66.2°F19.0°C 89% 9.0 mph SSW14.5 kmh SSW 9.1 mph14.6 kmh 29.92 in1013.2 mb 0.00 in0.0 mm 0.00 in0.0 mm 0.62 in15.7 mm
05:30 PM 69.6°F20.9°C 65.8°F18.8°C 88% 6.0 mph SW9.7 kmh SW 15.1 mph24.3 kmh 29.92 in1013.2 mb 0.00 in0.0 mm 0.00 in0.0 mm 0.62 in15.7 mm
05:45 PM 69.8°F21.0°C 65.7°F18.7°C 87% 9.0 mph SW14.5 kmh SW 22.2 mph35.7 kmh 29.93 in1013.5 mb 0.00 in0.0 mm 0.00 in0.0 mm 0.62 in15.7 mm
06:00 PM 69.8°F21.0°C 65.7°F18.7°C 87% 9.0 mph SSW14.5 kmh SSW 21.2 mph34.1 kmh 29.93 in1013.5 mb 0.00 in0.0 mm 0.00 in0.0 mm 0.62 in15.7 mm
06:15 PM 69.6°F20.9°C 65.8°F18.8°C 88% 7.0 mph SW11.3 kmh SW 18.2 mph29.3 kmh 29.93 in1013.5 mb 0.00 in0.0 mm 0.00 in0.0 mm 0.62 in15.7 mm
06:30 PM 69.2°F20.7°C 65.5°F18.6°C 88% 8.0 mph SSW12.9 kmh SSW 13.1 mph21.1 kmh 29.93 in1013.5 mb 0.00 in0.0 mm 0.00 in0.0 mm 0.62 in15.7 mm
06:45 PM 69.0°F20.6°C 65.4°F18.6°C 88% 4.0 mph SW6.4 kmh SW 11.1 mph17.9 kmh 29.95 in1014.2 mb 0.00 in0.0 mm 0.00 in0.0 mm 0.62 in15.7 mm
07:00 PM 68.5°F20.3°C 65.2°F18.4°C 89% 8.0 mph S12.9 kmh S 11.1 mph17.9 kmh 29.95 in1014.2 mb 0.00 in0.0 mm 0.00 in0.0 mm 0.62 in15.7 mm
07:15 PM 68.5°F20.3°C 65.2°F18.4°C 89% 15.0 mph SW24.1 kmh SW 15.1 mph24.3 kmh 29.96 in1014.6 mb 0.00 in0.0 mm 0.00 in0.0 mm 0.62 in15.7 mm
07:30 PM 68.9°F20.5°C 65.3°F18.5°C 88% 13.0 mph SSW20.9 kmh SSW 13.1 mph21.1 kmh 29.96 in1014.6 mb 0.00 in0.0 mm 0.00 in0.0 mm 0.62 in15.7 mm
07:45 PM 68.8°F20.4°C 65.2°F18.4°C 88% 10.0 mph S16.1 kmh S 13.1 mph21.1 kmh 29.96 in1014.6 mb 0.00 in0.0 mm 0.00 in0.0 mm 0.62 in15.7 mm
08:00 PM 68.7°F20.4°C 64.7°F18.2°C 87% 5.0 mph SW8.0 kmh SW 9.1 mph14.6 kmh 29.97 in1014.9 mb 0.00 in0.0 mm 0.00 in0.0 mm 0.62 in15.7 mm
08:15 PM 68.3°F20.2°C 64.3°F17.9°C 87% 6.0 mph SSW9.7 kmh SSW 13.1 mph21.1 kmh 29.97 in1014.9 mb 0.00 in0.0 mm 0.00 in0.0 mm 0.62 in15.7 mm
08:30 PM 67.8°F19.9°C 64.2°F17.9°C 88% 10.0 mph S16.1 kmh S 10.1 mph16.3 kmh 29.97 in1014.9 mb 0.00 in0.0 mm 0.00 in0.0 mm 0.62 in15.7 mm
08:45 PM 67.6°F19.8°C 64.3°F17.9°C 89% 3.0 mph SSW4.8 kmh SSW 8.1 mph13.0 kmh 29.98 in1015.2 mb 0.00 in0.0 mm 0.00 in0.0 mm 0.62 in15.7 mm
09:00 PM 67.9°F19.9°C 64.6°F18.1°C 89% 7.0 mph SSW11.3 kmh SSW 11.1 mph17.9 kmh 29.98 in1015.2 mb 0.00 in0.0 mm 0.00 in0.0 mm 0.62 in15.7 mm
09:15 PM 67.8°F19.9°C 64.5°F18.1°C 89% 1.0 mph SW1.6 kmh SW 7.1 mph11.4 kmh 29.99 in1015.6 mb 0.00 in0.0 mm 0.00 in0.0 mm 0.62 in15.7 mm
09:30 PM 67.9°F19.9°C 64.3°F17.9°C 88% 5.0 mph SW8.0 kmh SW 10.1 mph16.3 kmh 29.99 in1015.6 mb 0.00 in0.0 mm 0.00 in0.0 mm 0.62 in15.7 mm
09:45 PM 67.8°F19.9°C 64.2°F17.9°C 88% 6.0 mph SSW9.7 kmh SSW 9.1 mph14.6 kmh 30.00 in1015.9 mb 0.00 in0.0 mm 0.00 in0.0 mm 0.62 in15.7 mm
10:00 PM 67.4°F19.7°C 64.1°F17.8°C 89% 13.0 mph S20.9 kmh S 13.1 mph21.1 kmh 29.99 in1015.6 mb 0.00 in0.0 mm 0.00 in0.0 mm 0.62 in15.7 mm
10:15 PM 67.5°F19.7°C 64.2°F17.9°C 89% 11.0 mph SSW17.7 kmh SSW 11.1 mph17.9 kmh 29.99 in1015.6 mb 0.00 in0.0 mm 0.00 in0.0 mm 0.62 in15.7 mm
10:30 PM 67.4°F19.7°C 63.8°F17.7°C 88% 11.0 mph SSW17.7 kmh SSW 12.1 mph19.5 kmh 30.00 in1015.9 mb 0.00 in0.0 mm 0.00 in0.0 mm 0.62 in15.7 mm
10:45 PM 67.4°F19.7°C 63.8°F17.7°C 88% 5.0 mph SW8.0 kmh SW 13.1 mph21.1 kmh 29.99 in1015.6 mb 0.00 in0.0 mm 0.00 in0.0 mm 0.62 in15.7 mm
11:00 PM 67.2°F19.6°C 63.6°F17.6°C 88% 11.0 mph SSW17.7 kmh SSW 11.1 mph17.9 kmh 30.00 in1015.9 mb 0.00 in0.0 mm 0.00 in0.0 mm 0.62 in15.7 mm
11:15 PM 67.1°F19.5°C 63.8°F17.7°C 89% 9.0 mph SSW14.5 kmh SSW 12.1 mph19.5 kmh 30.00 in1015.9 mb 0.00 in0.0 mm 0.00 in0.0 mm 0.62 in15.7 mm
11:30 PM 67.1°F19.5°C 63.8°F17.7°C 89% 9.0 mph SSW14.5 kmh SSW 14.1 mph22.7 kmh 30.00 in1015.9 mb 0.00 in0.0 mm 0.00 in0.0 mm 0.62 in15.7 mm
11:45 PM 67.1°F19.5°C 63.5°F17.5°C 88% 4.0 mph SW6.4 kmh SW 9.1 mph14.6 kmh 30.01 in1016.3 mb 0.00 in0.0 mm 0.00 in0.0 mm 0.62 in15.7 mm